sensor_id;sensor_type;location;lat;lon;timestamp;temperature;humidity
921;DHT22;447;51.332;6.778;2023-05-10T00:00:46;19.10;99.90
921;DHT22;447;51.332;6.778;2023-05-10T00:03:14;19.10;99.90
921;DHT22;447;51.332;6.778;2023-05-10T00:05:40;19.10;99.90
921;DHT22;447;51.332;6.778;2023-05-10T00:08:06;19.10;99.90
921;DHT22;447;51.332;6.778;2023-05-10T00:10:34;19.10;99.90
921;DHT22;447;51.332;6.778;2023-05-10T00:13:03;19.10;99.90
921;DHT22;447;51.332;6.778;2023-05-10T00:15:33;19.10;99.90
921;DHT22;447;51.332;6.778;2023-05-10T00:18:00;19.10;99.90
921;DHT22;447;51.332;6.778;2023-05-10T00:20:28;19.10;99.90
921;DHT22;447;51.332;6.778;2023-05-10T00:22:54;19.10;99.90
921;DHT22;447;51.332;6.778;2023-05-10T00:25:20;19.00;99.90
921;DHT22;447;51.332;6.778;2023-05-10T00:27:47;19.10;99.90
921;DHT22;447;51.332;6.778;2023-05-10T00:30:13;19.00;99.90
921;DHT22;447;51.332;6.778;2023-05-10T00:32:44;19.00;99.90
921;DHT22;447;51.332;6.778;2023-05-10T00:35:10;19.00;99.90
921;DHT22;447;51.332;6.778;2023-05-10T00:37:36;19.00;99.90
921;DHT22;447;51.332;6.778;2023-05-10T00:40:02;19.00;99.90
921;DHT22;447;51.332;6.778;2023-05-10T00:42:31;19.00;99.90
921;DHT22;447;51.332;6.778;2023-05-10T00:45:04;19.00;99.90
921;DHT22;447;51.332;6.778;2023-05-10T00:47:31;19.00;99.90
921;DHT22;447;51.332;6.778;2023-05-10T00:50:01;19.00;99.90
921;DHT22;447;51.332;6.778;2023-05-10T00:52:29;19.00;99.90
921;DHT22;447;51.332;6.778;2023-05-10T00:54:55;19.00;99.90
921;DHT22;447;51.332;6.778;2023-05-10T00:57:25;19.00;99.90
921;DHT22;447;51.332;6.778;2023-05-10T00:59:53;19.00;99.90
921;DHT22;447;51.332;6.778;2023-05-10T01:02:19;18.90;99.90
921;DHT22;447;51.332;6.778;2023-05-10T01:04:46;18.90;99.90
921;DHT22;447;51.332;6.778;2023-05-10T01:07:12;18.90;99.90
921;DHT22;447;51.332;6.778;2023-05-10T01:13:42;18.90;99.90
921;DHT22;447;51.332;6.778;2023-05-10T01:16:09;18.90;99.90
921;DHT22;447;51.332;6.778;2023-05-10T01:18:37;18.90;99.90
921;DHT22;447;51.332;6.778;2023-05-10T01:32:21;18.80;99.90
921;DHT22;447;51.332;6.778;2023-05-10T01:35:08;18.80;99.90
921;DHT22;447;51.332;6.778;2023-05-10T01:37:39;18.80;99.90
921;DHT22;447;51.332;6.778;2023-05-10T01:40:25;18.80;99.90
921;DHT22;447;51.332;6.778;2023-05-10T01:43:03;18.80;99.90
921;DHT22;447;51.332;6.778;2023-05-10T01:45:50;18.80;99.90
921;DHT22;447;51.332;6.778;2023-05-10T01:48:26;18.80;99.90
921;DHT22;447;51.332;6.778;2023-05-10T01:50:56;18.70;99.90
921;DHT22;447;51.332;6.778;2023-05-10T01:53:29;18.70;99.90
921;DHT22;447;51.332;6.778;2023-05-10T01:55:56;18.70;99.90
921;DHT22;447;51.332;6.778;2023-05-10T01:58:30;18.70;99.90
921;DHT22;447;51.332;6.778;2023-05-10T02:01:03;18.70;99.90
921;DHT22;447;51.332;6.778;2023-05-10T02:03:31;18.70;99.90
921;DHT22;447;51.332;6.778;2023-05-10T02:05:59;18.70;99.90
921;DHT22;447;51.332;6.778;2023-05-10T02:08:28;18.70;99.90
921;DHT22;447;51.332;6.778;2023-05-10T02:10:55;18.70;99.90
921;DHT22;447;51.332;6.778;2023-05-10T02:13:31;18.70;99.90
921;DHT22;447;51.332;6.778;2023-05-10T02:16:02;18.60;99.90
921;DHT22;447;51.332;6.778;2023-05-10T02:18:29;18.70;99.90
921;DHT22;447;51.332;6.778;2023-05-10T02:20:56;18.70;99.90
921;DHT22;447;51.332;6.778;2023-05-10T02:23:26;18.70;99.90
921;DHT22;447;51.332;6.778;2023-05-10T02:25:56;18.60;99.90
921;DHT22;447;51.332;6.778;2023-05-10T02:28:26;18.70;99.90
921;DHT22;447;51.332;6.778;2023-05-10T02:30:57;18.60;99.90
921;DHT22;447;51.332;6.778;2023-05-10T02:33:24;18.60;99.90
921;DHT22;447;51.332;6.778;2023-05-10T02:35:54;18.60;99.90
921;DHT22;447;51.332;6.778;2023-05-10T02:38:22;18.60;99.90
921;DHT22;447;51.332;6.778;2023-05-10T02:40:52;18.60;99.90
921;DHT22;447;51.332;6.778;2023-05-10T02:43:22;18.60;99.90
921;DHT22;447;51.332;6.778;2023-05-10T02:45:51;18.60;99.90
921;DHT22;447;51.332;6.778;2023-05-10T02:48:20;18.60;99.90
921;DHT22;447;51.332;6.778;2023-05-10T02:50:47;18.60;99.90
921;DHT22;447;51.332;6.778;2023-05-10T02:53:23;18.50;99.90
921;DHT22;447;51.332;6.778;2023-05-10T02:55:58;18.50;99.90
921;DHT22;447;51.332;6.778;2023-05-10T02:58:29;18.50;99.90
921;DHT22;447;51.332;6.778;2023-05-10T03:00:56;18.50;99.90
921;DHT22;447;51.332;6.778;2023-05-10T03:03:26;18.50;99.90
921;DHT22;447;51.332;6.778;2023-05-10T03:05:54;18.50;99.90
921;DHT22;447;51.332;6.778;2023-05-10T03:08:26;18.50;99.90
921;DHT22;447;51.332;6.778;2023-05-10T03:16:44;18.50;99.90
921;DHT22;447;51.332;6.778;2023-05-10T03:19:30;18.50;99.90
921;DHT22;447;51.332;6.778;2023-05-10T03:22:08;18.50;99.90
921;DHT22;447;51.332;6.778;2023-05-10T03:24:36;18.40;99.90
921;DHT22;447;51.332;6.778;2023-05-10T03:27:10;18.40;99.90
921;DHT22;447;51.332;6.778;2023-05-10T03:29:40;18.40;99.90
921;DHT22;447;51.332;6.778;2023-05-10T03:32:07;18.40;99.90
921;DHT22;447;51.332;6.778;2023-05-10T03:34:36;18.40;99.90
921;DHT22;447;51.332;6.778;2023-05-10T03:37:11;18.40;99.90
921;DHT22;447;51.332;6.778;2023-05-10T03:39:42;18.40;99.90
921;DHT22;447;51.332;6.778;2023-05-10T03:42:09;18.40;99.90
921;DHT22;447;51.332;6.778;2023-05-10T03:44:39;18.40;99.90
921;DHT22;447;51.332;6.778;2023-05-10T03:47:05;18.40;99.90
921;DHT22;447;51.332;6.778;2023-05-10T03:49:34;18.40;99.90
921;DHT22;447;51.332;6.778;2023-05-10T03:52:00;18.40;99.90
921;DHT22;447;51.332;6.778;2023-05-10T03:54:29;18.40;99.90
921;DHT22;447;51.332;6.778;2023-05-10T03:56:57;18.40;99.90
921;DHT22;447;51.332;6.778;2023-05-10T03:59:24;18.40;99.90
921;DHT22;447;51.332;6.778;2023-05-10T04:01:54;18.30;99.90
921;DHT22;447;51.332;6.778;2023-05-10T04:04:21;18.30;99.90
921;DHT22;447;51.332;6.778;2023-05-10T04:06:49;18.30;99.90
921;DHT22;447;51.332;6.778;2023-05-10T04:09:15;18.30;99.90
921;DHT22;447;51.332;6.778;2023-05-10T04:11:44;18.30;99.90
921;DHT22;447;51.332;6.778;2023-05-10T04:14:10;18.30;99.90
921;DHT22;447;51.332;6.778;2023-05-10T04:16:36;18.30;99.90
921;DHT22;447;51.332;6.778;2023-05-10T04:19:04;18.20;99.90
921;DHT22;447;51.332;6.778;2023-05-10T04:21:33;18.20;99.90
921;DHT22;447;51.332;6.778;2023-05-10T04:24:01;18.20;99.90
921;DHT22;447;51.332;6.778;2023-05-10T04:26:27;18.20;99.90
921;DHT22;447;51.332;6.778;2023-05-10T04:28:53;18.20;99.90
921;DHT22;447;51.332;6.778;2023-05-10T04:31:22;18.20;99.90
921;DHT22;447;51.332;6.778;2023-05-10T04:33:50;18.20;99.90
921;DHT22;447;51.332;6.778;2023-05-10T04:36:16;18.20;99.90
921;DHT22;447;51.332;6.778;2023-05-10T04:38:42;18.20;99.90
921;DHT22;447;51.332;6.778;2023-05-10T04:41:13;18.20;99.90
921;DHT22;447;51.332;6.778;2023-05-10T04:43:41;18.20;99.90
921;DHT22;447;51.332;6.778;2023-05-10T04:46:07;18.20;99.90
921;DHT22;447;51.332;6.778;2023-05-10T04:48:35;18.10;99.90
921;DHT22;447;51.332;6.778;2023-05-10T04:51:01;18.20;99.90
921;DHT22;447;51.332;6.778;2023-05-10T04:53:31;18.10;99.90
921;DHT22;447;51.332;6.778;2023-05-10T04:55:57;18.20;99.90
921;DHT22;447;51.332;6.778;2023-05-10T04:58:23;18.10;99.90
921;DHT22;447;51.332;6.778;2023-05-10T05:00:52;18.10;99.90
921;DHT22;447;51.332;6.778;2023-05-10T05:03:20;18.10;99.90
921;DHT22;447;51.332;6.778;2023-05-10T05:05:47;18.10;99.90
921;DHT22;447;51.332;6.778;2023-05-10T05:08:13;18.10;99.90
921;DHT22;447;51.332;6.778;2023-05-10T05:10:44;18.10;99.90
921;DHT22;447;51.332;6.778;2023-05-10T05:13:13;18.10;99.90
921;DHT22;447;51.332;6.778;2023-05-10T05:15:43;18.10;99.90
921;DHT22;447;51.332;6.778;2023-05-10T05:18:09;18.10;99.90
921;DHT22;447;51.332;6.778;2023-05-10T05:20:40;18.10;99.90
921;DHT22;447;51.332;6.778;2023-05-10T05:23:06;18.10;99.90
921;DHT22;447;51.332;6.778;2023-05-10T05:25:39;18.10;99.90
921;DHT22;447;51.332;6.778;2023-05-10T05:28:05;18.10;99.90
921;DHT22;447;51.332;6.778;2023-05-10T05:30:34;18.10;99.90
921;DHT22;447;51.332;6.778;2023-05-10T05:33:02;18.00;99.90
921;DHT22;447;51.332;6.778;2023-05-10T05:35:30;18.00;99.90
921;DHT22;447;51.332;6.778;2023-05-10T05:37:56;18.00;99.90
921;DHT22;447;51.332;6.778;2023-05-10T05:40:22;18.00;99.90
921;DHT22;447;51.332;6.778;2023-05-10T05:42:51;18.00;99.90
921;DHT22;447;51.332;6.778;2023-05-10T05:45:17;18.00;99.90
921;DHT22;447;51.332;6.778;2023-05-10T05:47:43;18.00;99.90
921;DHT22;447;51.332;6.778;2023-05-10T05:50:09;18.00;99.90
921;DHT22;447;51.332;6.778;2023-05-10T05:52:38;18.00;99.90
921;DHT22;447;51.332;6.778;2023-05-10T05:55:07;18.00;99.90
921;DHT22;447;51.332;6.778;2023-05-10T05:57:32;18.00;99.90
921;DHT22;447;51.332;6.778;2023-05-10T06:00:00;18.00;99.90
921;DHT22;447;51.332;6.778;2023-05-10T06:02:38;18.00;99.90
921;DHT22;447;51.332;6.778;2023-05-10T06:05:07;18.00;99.90
921;DHT22;447;51.332;6.778;2023-05-10T06:07:33;18.00;99.90
921;DHT22;447;51.332;6.778;2023-05-10T06:10:01;17.90;99.90
921;DHT22;447;51.332;6.778;2023-05-10T06:12:28;17.90;99.90
921;DHT22;447;51.332;6.778;2023-05-10T06:14:54;17.90;99.90
921;DHT22;447;51.332;6.778;2023-05-10T06:17:23;17.90;99.90
921;DHT22;447;51.332;6.778;2023-05-10T06:19:49;17.90;99.90
921;DHT22;447;51.332;6.778;2023-05-10T06:22:18;17.90;99.90
921;DHT22;447;51.332;6.778;2023-05-10T06:24:44;17.90;99.90
921;DHT22;447;51.332;6.778;2023-05-10T06:27:15;17.90;99.90
921;DHT22;447;51.332;6.778;2023-05-10T06:29:41;17.90;99.90
921;DHT22;447;51.332;6.778;2023-05-10T06:32:07;17.90;99.90
921;DHT22;447;51.332;6.778;2023-05-10T06:34:33;17.90;99.90
921;DHT22;447;51.332;6.778;2023-05-10T06:37:00;17.90;99.90
921;DHT22;447;51.332;6.778;2023-05-10T06:39:25;17.80;99.90
921;DHT22;447;51.332;6.778;2023-05-10T06:41:51;17.90;99.90
921;DHT22;447;51.332;6.778;2023-05-10T06:44:21;17.90;99.90
921;DHT22;447;51.332;6.778;2023-05-10T06:46:47;17.80;99.90
921;DHT22;447;51.332;6.778;2023-05-10T06:49:18;17.80;99.90
921;DHT22;447;51.332;6.778;2023-05-10T06:51:44;17.80;99.90
921;DHT22;447;51.332;6.778;2023-05-10T06:54:13;17.80;99.90
921;DHT22;447;51.332;6.778;2023-05-10T06:56:40;17.80;99.90
921;DHT22;447;51.332;6.778;2023-05-10T06:59:06;17.80;99.90
921;DHT22;447;51.332;6.778;2023-05-10T07:01:35;17.80;99.90
921;DHT22;447;51.332;6.778;2023-05-10T07:04:03;17.80;99.90
921;DHT22;447;51.332;6.778;2023-05-10T07:06:29;17.80;99.90
921;DHT22;447;51.332;6.778;2023-05-10T07:08:58;17.80;99.90
921;DHT22;447;51.332;6.778;2023-05-10T07:11:24;17.80;99.90
921;DHT22;447;51.332;6.778;2023-05-10T07:13:49;17.80;99.90
921;DHT22;447;51.332;6.778;2023-05-10T07:16:20;17.80;99.90
921;DHT22;447;51.332;6.778;2023-05-10T07:18:47;17.80;99.90
921;DHT22;447;51.332;6.778;2023-05-10T07:21:13;17.80;99.90
921;DHT22;447;51.332;6.778;2023-05-10T07:23:39;17.70;99.90
921;DHT22;447;51.332;6.778;2023-05-10T07:26:05;17.80;99.90
921;DHT22;447;51.332;6.778;2023-05-10T07:28:30;17.70;99.90
921;DHT22;447;51.332;6.778;2023-05-10T07:30:56;17.70;99.90
921;DHT22;447;51.332;6.778;2023-05-10T07:33:27;17.70;99.90
921;DHT22;447;51.332;6.778;2023-05-10T07:35:55;17.70;99.90
921;DHT22;447;51.332;6.778;2023-05-10T07:38:22;17.70;99.90
921;DHT22;447;51.332;6.778;2023-05-10T07:40:48;17.70;99.90
921;DHT22;447;51.332;6.778;2023-05-10T07:43:14;17.70;99.90
921;DHT22;447;51.332;6.778;2023-05-10T07:45:40;17.70;99.90
921;DHT22;447;51.332;6.778;2023-05-10T07:48:06;17.70;99.90
921;DHT22;447;51.332;6.778;2023-05-10T07:50:34;17.70;99.90
921;DHT22;447;51.332;6.778;2023-05-10T07:53:00;17.70;99.90
921;DHT22;447;51.332;6.778;2023-05-10T07:55:26;17.70;99.90
921;DHT22;447;51.332;6.778;2023-05-10T07:57:54;17.70;99.90
921;DHT22;447;51.332;6.778;2023-05-10T08:00:20;17.70;99.90
921;DHT22;447;51.332;6.778;2023-05-10T08:02:47;17.70;99.90
921;DHT22;447;51.332;6.778;2023-05-10T08:05:18;17.70;99.90
921;DHT22;447;51.332;6.778;2023-05-10T08:07:44;17.70;99.90
921;DHT22;447;51.332;6.778;2023-05-10T08:10:14;17.70;99.90
921;DHT22;447;51.332;6.778;2023-05-10T08:12:40;17.70;99.90
921;DHT22;447;51.332;6.778;2023-05-10T08:15:07;17.70;99.90
921;DHT22;447;51.332;6.778;2023-05-10T08:17:33;17.70;99.90
921;DHT22;447;51.332;6.778;2023-05-10T08:20:02;17.70;99.90
921;DHT22;447;51.332;6.778;2023-05-10T08:22:30;17.70;99.90
921;DHT22;447;51.332;6.778;2023-05-10T08:24:59;17.60;99.90
921;DHT22;447;51.332;6.778;2023-05-10T08:27:25;17.70;99.90
921;DHT22;447;51.332;6.778;2023-05-10T08:29:52;17.70;99.90
921;DHT22;447;51.332;6.778;2023-05-10T08:32:20;17.70;99.90
921;DHT22;447;51.332;6.778;2023-05-10T08:34:50;17.70;99.90
921;DHT22;447;51.332;6.778;2023-05-10T08:37:19;17.70;99.90
921;DHT22;447;51.332;6.778;2023-05-10T08:39:45;17.70;99.90
921;DHT22;447;51.332;6.778;2023-05-10T08:42:16;17.70;99.90
921;DHT22;447;51.332;6.778;2023-05-10T08:44:42;17.70;99.90
921;DHT22;447;51.332;6.778;2023-05-10T08:47:13;17.60;99.90
921;DHT22;447;51.332;6.778;2023-05-10T08:49:47;17.60;99.90
921;DHT22;447;51.332;6.778;2023-05-10T08:52:15;17.60;99.90
921;DHT22;447;51.332;6.778;2023-05-10T08:54:42;17.60;99.90
921;DHT22;447;51.332;6.778;2023-05-10T08:57:08;17.60;99.90
921;DHT22;447;51.332;6.778;2023-05-10T08:59:34;17.60;99.90
921;DHT22;447;51.332;6.778;2023-05-10T09:02:05;17.60;99.90
921;DHT22;447;51.332;6.778;2023-05-10T09:04:33;17.60;99.90
921;DHT22;447;51.332;6.778;2023-05-10T09:06:59;17.60;99.90
921;DHT22;447;51.332;6.778;2023-05-10T09:09:31;17.60;99.90
921;DHT22;447;51.332;6.778;2023-05-10T09:12:00;17.60;99.90
921;DHT22;447;51.332;6.778;2023-05-10T09:14:26;17.60;99.90
921;DHT22;447;51.332;6.778;2023-05-10T09:16:53;17.60;99.90
921;DHT22;447;51.332;6.778;2023-05-10T09:19:23;17.60;99.90
921;DHT22;447;51.332;6.778;2023-05-10T09:21:49;17.60;99.90
921;DHT22;447;51.332;6.778;2023-05-10T09:24:17;17.60;99.90
921;DHT22;447;51.332;6.778;2023-05-10T09:26:48;17.60;99.90
921;DHT22;447;51.332;6.778;2023-05-10T09:29:15;17.60;99.90
921;DHT22;447;51.332;6.778;2023-05-10T09:34:10;17.60;99.90
921;DHT22;447;51.332;6.778;2023-05-10T09:37:00;17.60;99.90
921;DHT22;447;51.332;6.778;2023-05-10T09:39:34;17.60;99.90
921;DHT22;447;51.332;6.778;2023-05-10T09:42:03;17.60;99.90
921;DHT22;447;51.332;6.778;2023-05-10T09:44:33;17.60;99.90
921;DHT22;447;51.332;6.778;2023-05-10T09:47:00;17.60;99.90
921;DHT22;447;51.332;6.778;2023-05-10T09:49:29;17.60;99.90
921;DHT22;447;51.332;6.778;2023-05-10T09:52:04;17.60;99.90
921;DHT22;447;51.332;6.778;2023-05-10T09:54:31;17.60;99.90
921;DHT22;447;51.332;6.778;2023-05-10T09:56:57;17.60;99.90
921;DHT22;447;51.332;6.778;2023-05-10T09:59:28;17.60;99.90
921;DHT22;447;51.332;6.778;2023-05-10T10:01:59;17.60;99.90
921;DHT22;447;51.332;6.778;2023-05-10T10:04:26;17.60;99.90
921;DHT22;447;51.332;6.778;2023-05-10T10:07:05;17.60;99.90
921;DHT22;447;51.332;6.778;2023-05-10T10:09:34;17.60;99.90
921;DHT22;447;51.332;6.778;2023-05-10T10:12:03;17.60;99.90
921;DHT22;447;51.332;6.778;2023-05-10T10:14:29;17.60;99.90
921;DHT22;447;51.332;6.778;2023-05-10T10:16:56;17.60;99.90
921;DHT22;447;51.332;6.778;2023-05-10T10:19:22;17.60;99.90
921;DHT22;447;51.332;6.778;2023-05-10T10:21:52;17.60;99.90
921;DHT22;447;51.332;6.778;2023-05-10T10:24:18;17.60;99.90
921;DHT22;447;51.332;6.778;2023-05-10T10:26:45;17.60;99.90
921;DHT22;447;51.332;6.778;2023-05-10T10:32:22;17.70;99.90
921;DHT22;447;51.332;6.778;2023-05-10T10:34:56;17.70;99.90
921;DHT22;447;51.332;6.778;2023-05-10T10:37:24;17.70;99.90
921;DHT22;447;51.332;6.778;2023-05-10T10:40:29;17.70;99.90
921;DHT22;447;51.332;6.778;2023-05-10T10:42:58;17.70;99.90
921;DHT22;447;51.332;6.778;2023-05-10T10:46:08;17.70;99.90
921;DHT22;447;51.332;6.778;2023-05-10T10:48:33;17.70;99.90
921;DHT22;447;51.332;6.778;2023-05-10T10:51:00;17.70;99.90
921;DHT22;447;51.332;6.778;2023-05-10T10:53:27;17.70;99.90
921;DHT22;447;51.332;6.778;2023-05-10T10:56:09;17.70;99.90
921;DHT22;447;51.332;6.778;2023-05-10T10:58:39;17.70;99.90
921;DHT22;447;51.332;6.778;2023-05-10T11:01:27;17.70;99.90
921;DHT22;447;51.332;6.778;2023-05-10T11:06:32;17.70;99.90
921;DHT22;447;51.332;6.778;2023-05-10T11:09:04;17.70;99.90
921;DHT22;447;51.332;6.778;2023-05-10T11:11:35;17.70;99.90
921;DHT22;447;51.332;6.778;2023-05-10T11:14:06;17.70;99.90
921;DHT22;447;51.332;6.778;2023-05-10T11:16:44;17.70;99.90
921;DHT22;447;51.332;6.778;2023-05-10T11:19:12;17.70;99.90
921;DHT22;447;51.332;6.778;2023-05-10T11:22:11;17.70;99.90
921;DHT22;447;51.332;6.778;2023-05-10T11:24:41;17.70;99.90
921;DHT22;447;51.332;6.778;2023-05-10T11:27:21;17.70;99.90
921;DHT22;447;51.332;6.778;2023-05-10T11:29:52;17.70;99.90
921;DHT22;447;51.332;6.778;2023-05-10T11:32:19;17.70;99.90
921;DHT22;447;51.332;6.778;2023-05-10T11:34:47;17.80;99.90
921;DHT22;447;51.332;6.778;2023-05-10T11:37:14;17.80;99.90
921;DHT22;447;51.332;6.778;2023-05-10T11:39:46;17.80;99.90
921;DHT22;447;51.332;6.778;2023-05-10T11:42:13;17.80;99.90
921;DHT22;447;51.332;6.778;2023-05-10T11:44:40;17.80;99.90
921;DHT22;447;51.332;6.778;2023-05-10T11:47:12;17.80;99.90
921;DHT22;447;51.332;6.778;2023-05-10T11:49:43;17.80;99.90
921;DHT22;447;51.332;6.778;2023-05-10T11:52:12;17.70;99.90
921;DHT22;447;51.332;6.778;2023-05-10T11:54:44;17.80;99.90
921;DHT22;447;51.332;6.778;2023-05-10T11:57:13;17.80;99.90
921;DHT22;447;51.332;6.778;2023-05-10T11:59:41;17.70;99.90
921;DHT22;447;51.332;6.778;2023-05-10T12:02:07;17.70;99.90
921;DHT22;447;51.332;6.778;2023-05-10T12:04:33;17.80;99.90
921;DHT22;447;51.332;6.778;2023-05-10T12:06:59;17.70;99.90
921;DHT22;447;51.332;6.778;2023-05-10T12:09:28;17.80;99.90
921;DHT22;447;51.332;6.778;2023-05-10T12:11:56;17.80;99.90
921;DHT22;447;51.332;6.778;2023-05-10T12:14:24;17.80;99.90
921;DHT22;447;51.332;6.778;2023-05-10T12:16:53;17.70;99.90
921;DHT22;447;51.332;6.778;2023-05-10T12:19:19;17.80;99.90
921;DHT22;447;51.332;6.778;2023-05-10T12:21:49;17.80;99.90
921;DHT22;447;51.332;6.778;2023-05-10T12:24:15;17.80;99.90
921;DHT22;447;51.332;6.778;2023-05-10T12:26:47;17.80;99.90
921;DHT22;447;51.332;6.778;2023-05-10T12:29:18;17.80;99.90
921;DHT22;447;51.332;6.778;2023-05-10T12:32:01;17.80;99.90
921;DHT22;447;51.332;6.778;2023-05-10T12:37:01;17.80;99.90
921;DHT22;447;51.332;6.778;2023-05-10T12:39:39;17.80;99.90
921;DHT22;447;51.332;6.778;2023-05-10T12:42:09;17.90;99.90
921;DHT22;447;51.332;6.778;2023-05-10T12:44:38;17.80;99.90
921;DHT22;447;51.332;6.778;2023-05-10T12:47:06;17.90;99.90
921;DHT22;447;51.332;6.778;2023-05-10T12:49:33;17.90;99.90
921;DHT22;447;51.332;6.778;2023-05-10T12:52:06;17.90;99.90
921;DHT22;447;51.332;6.778;2023-05-10T12:54:34;17.90;99.90
921;DHT22;447;51.332;6.778;2023-05-10T12:57:03;17.90;99.90
921;DHT22;447;51.332;6.778;2023-05-10T12:59:29;17.90;99.90
921;DHT22;447;51.332;6.778;2023-05-10T13:01:57;17.90;99.90
921;DHT22;447;51.332;6.778;2023-05-10T13:04:27;17.90;99.90
921;DHT22;447;51.332;6.778;2023-05-10T13:06:53;18.00;99.90
921;DHT22;447;51.332;6.778;2023-05-10T13:09:26;18.00;99.90
921;DHT22;447;51.332;6.778;2023-05-10T13:11:55;18.00;99.90
921;DHT22;447;51.332;6.778;2023-05-10T13:14:21;18.00;99.90
921;DHT22;447;51.332;6.778;2023-05-10T13:16:50;18.10;99.90
921;DHT22;447;51.332;6.778;2023-05-10T13:19:23;18.10;99.90
921;DHT22;447;51.332;6.778;2023-05-10T13:21:51;18.10;99.90
921;DHT22;447;51.332;6.778;2023-05-10T13:24:17;18.10;99.90
921;DHT22;447;51.332;6.778;2023-05-10T13:26:43;18.10;99.90
921;DHT22;447;51.332;6.778;2023-05-10T13:29:09;18.10;99.90
921;DHT22;447;51.332;6.778;2023-05-10T13:31:37;18.20;99.90
921;DHT22;447;51.332;6.778;2023-05-10T13:34:04;18.20;99.90
921;DHT22;447;51.332;6.778;2023-05-10T13:36:33;18.20;99.90
921;DHT22;447;51.332;6.778;2023-05-10T13:38:59;18.20;99.90
921;DHT22;447;51.332;6.778;2023-05-10T13:41:28;18.30;99.90
921;DHT22;447;51.332;6.778;2023-05-10T13:43:56;18.30;99.90
921;DHT22;447;51.332;6.778;2023-05-10T13:46:25;18.30;99.90
921;DHT22;447;51.332;6.778;2023-05-10T13:48:51;18.30;99.90
921;DHT22;447;51.332;6.778;2023-05-10T13:51:19;18.30;99.90
921;DHT22;447;51.332;6.778;2023-05-10T13:53:49;18.30;99.90
921;DHT22;447;51.332;6.778;2023-05-10T13:56:15;18.30;99.90
921;DHT22;447;51.332;6.778;2023-05-10T13:58:41;18.30;99.90
921;DHT22;447;51.332;6.778;2023-05-10T14:01:10;18.30;99.90
921;DHT22;447;51.332;6.778;2023-05-10T14:03:37;18.40;99.90
921;DHT22;447;51.332;6.778;2023-05-10T14:06:08;18.40;99.90
921;DHT22;447;51.332;6.778;2023-05-10T14:08:36;18.40;99.90
921;DHT22;447;51.332;6.778;2023-05-10T14:11:07;18.40;99.90
921;DHT22;447;51.332;6.778;2023-05-10T14:13:34;18.40;99.90
921;DHT22;447;51.332;6.778;2023-05-10T14:16:00;18.40;99.90
921;DHT22;447;51.332;6.778;2023-05-10T14:18:28;18.40;99.90
921;DHT22;447;51.332;6.778;2023-05-10T14:20:54;18.50;99.90
921;DHT22;447;51.332;6.778;2023-05-10T14:23:23;18.50;99.90
921;DHT22;447;51.332;6.778;2023-05-10T14:25:52;18.50;99.90
921;DHT22;447;51.332;6.778;2023-05-10T14:28:20;18.50;99.90
921;DHT22;447;51.332;6.778;2023-05-10T14:30:50;18.50;99.90
921;DHT22;447;51.332;6.778;2023-05-10T14:33:21;18.50;99.90
921;DHT22;447;51.332;6.778;2023-05-10T14:35:49;18.50;99.90
921;DHT22;447;51.332;6.778;2023-05-10T14:38:15;18.60;99.90
921;DHT22;447;51.332;6.778;2023-05-10T14:40:44;18.60;99.90
921;DHT22;447;51.332;6.778;2023-05-10T14:43:12;18.60;99.90
921;DHT22;447;51.332;6.778;2023-05-10T14:45:38;18.60;99.90
921;DHT22;447;51.332;6.778;2023-05-10T14:48:04;18.70;99.90
921;DHT22;447;51.332;6.778;2023-05-10T14:50:37;18.70;99.90
921;DHT22;447;51.332;6.778;2023-05-10T14:53:04;18.70;99.90
921;DHT22;447;51.332;6.778;2023-05-10T14:55:30;18.70;99.90
921;DHT22;447;51.332;6.778;2023-05-10T14:57:59;18.70;99.90
921;DHT22;447;51.332;6.778;2023-05-10T15:00:25;18.80;99.90
921;DHT22;447;51.332;6.778;2023-05-10T15:02:53;18.70;99.90
921;DHT22;447;51.332;6.778;2023-05-10T15:05:19;18.80;99.90
921;DHT22;447;51.332;6.778;2023-05-10T15:07:47;18.80;99.90
921;DHT22;447;51.332;6.778;2023-05-10T15:10:14;18.80;99.90
921;DHT22;447;51.332;6.778;2023-05-10T15:12:40;18.90;99.90
921;DHT22;447;51.332;6.778;2023-05-10T15:15:06;18.90;99.90
921;DHT22;447;51.332;6.778;2023-05-10T15:17:35;18.90;99.90
921;DHT22;447;51.332;6.778;2023-05-10T15:20:02;19.00;99.90
921;DHT22;447;51.332;6.778;2023-05-10T15:22:33;19.00;99.90
921;DHT22;447;51.332;6.778;2023-05-10T15:25:01;19.00;99.90
921;DHT22;447;51.332;6.778;2023-05-10T15:27:30;19.00;99.90
921;DHT22;447;51.332;6.778;2023-05-10T15:29:56;19.00;99.90
921;DHT22;447;51.332;6.778;2023-05-10T15:32:22;19.00;99.90
921;DHT22;447;51.332;6.778;2023-05-10T15:34:50;19.00;99.90
921;DHT22;447;51.332;6.778;2023-05-10T15:37:19;19.00;99.90
921;DHT22;447;51.332;6.778;2023-05-10T15:39:45;19.00;99.90
921;DHT22;447;51.332;6.778;2023-05-10T15:42:11;19.00;99.90
921;DHT22;447;51.332;6.778;2023-05-10T15:44:38;19.00;99.90
921;DHT22;447;51.332;6.778;2023-05-10T15:47:06;19.00;99.90
921;DHT22;447;51.332;6.778;2023-05-10T15:49:35;19.00;99.90
921;DHT22;447;51.332;6.778;2023-05-10T15:52:01;19.00;99.90
921;DHT22;447;51.332;6.778;2023-05-10T15:54:28;19.00;99.90
921;DHT22;447;51.332;6.778;2023-05-10T15:56:54;19.00;99.90
921;DHT22;447;51.332;6.778;2023-05-10T15:59:20;19.00;99.90
921;DHT22;447;51.332;6.778;2023-05-10T16:01:46;18.90;99.90
921;DHT22;447;51.332;6.778;2023-05-10T16:04:13;18.90;99.90
921;DHT22;447;51.332;6.778;2023-05-10T16:06:41;19.00;99.90
921;DHT22;447;51.332;6.778;2023-05-10T16:09:12;18.90;99.90
921;DHT22;447;51.332;6.778;2023-05-10T16:11:38;18.90;99.90
921;DHT22;447;51.332;6.778;2023-05-10T16:14:06;18.90;99.90
921;DHT22;447;51.332;6.778;2023-05-10T16:16:34;18.90;99.90
921;DHT22;447;51.332;6.778;2023-05-10T16:19:05;18.80;99.90
921;DHT22;447;51.332;6.778;2023-05-10T16:21:33;18.90;99.90
921;DHT22;447;51.332;6.778;2023-05-10T16:24:03;18.80;99.90
921;DHT22;447;51.332;6.778;2023-05-10T16:26:31;18.80;99.90
921;DHT22;447;51.332;6.778;2023-05-10T16:28:59;18.80;99.90
921;DHT22;447;51.332;6.778;2023-05-10T16:31:25;18.80;99.90
921;DHT22;447;51.332;6.778;2023-05-10T16:33:53;18.80;99.90
921;DHT22;447;51.332;6.778;2023-05-10T16:36:19;18.80;99.90
921;DHT22;447;51.332;6.778;2023-05-10T16:38:45;18.80;99.90
921;DHT22;447;51.332;6.778;2023-05-10T16:41:11;18.80;99.90
921;DHT22;447;51.332;6.778;2023-05-10T16:43:37;18.80;99.90
921;DHT22;447;51.332;6.778;2023-05-10T16:46:09;18.80;99.90
921;DHT22;447;51.332;6.778;2023-05-10T16:48:35;18.80;99.90
921;DHT22;447;51.332;6.778;2023-05-10T16:51:02;18.80;99.90
921;DHT22;447;51.332;6.778;2023-05-10T16:53:31;18.80;99.90
921;DHT22;447;51.332;6.778;2023-05-10T16:55:57;18.80;99.90
921;DHT22;447;51.332;6.778;2023-05-10T16:58:25;18.80;99.90
921;DHT22;447;51.332;6.778;2023-05-10T17:00:51;18.80;99.90
921;DHT22;447;51.332;6.778;2023-05-10T17:03:18;18.70;99.90
921;DHT22;447;51.332;6.778;2023-05-10T17:05:46;18.70;99.90
921;DHT22;447;51.332;6.778;2023-05-10T17:08:17;18.80;99.90
921;DHT22;447;51.332;6.778;2023-05-10T17:10:43;18.70;99.90
921;DHT22;447;51.332;6.778;2023-05-10T17:13:09;18.70;99.90
921;DHT22;447;51.332;6.778;2023-05-10T17:15:37;18.80;99.90